sensor_id;sensor_type;location;lat;lon;timestamp;pressure;altitude;pressure_sealevel;temperature;humidity
29163;BME280;20331;53.144;8.208;2023-04-30T00:03:45;102495.41;;;8.61;77.47
29163;BME280;20331;53.144;8.208;2023-04-30T00:14:06;102501.38;;;8.51;77.44
29163;BME280;20331;53.144;8.208;2023-04-30T00:24:28;102497.88;;;8.39;78.22
29163;BME280;20331;53.144;8.208;2023-04-30T00:34:49;102514.16;;;8.30;78.81
29163;BME280;20331;53.144;8.208;2023-04-30T00:45:10;102515.81;;;8.24;78.50
29163;BME280;20331;53.144;8.208;2023-04-30T00:55:32;102516.56;;;8.15;78.17
29163;BME280;20331;53.144;8.208;2023-04-30T01:05:53;102529.47;;;8.12;77.99
29163;BME280;20331;53.144;8.208;2023-04-30T01:16:21;102535.41;;;8.03;77.97
29163;BME280;20331;53.144;8.208;2023-04-30T01:47:54;102520.56;;;7.77;78.59
29163;BME280;20331;53.144;8.208;2023-04-30T01:58:17;102534.25;;;7.67;79.18
29163;BME280;20331;53.144;8.208;2023-04-30T02:08:42;102530.78;;;7.63;80.03
29163;BME280;20331;53.144;8.208;2023-04-30T02:19:04;102553.81;;;7.51;79.76
29163;BME280;20331;53.144;8.208;2023-04-30T02:29:25;102547.69;;;7.42;80.65
29163;BME280;20331;53.144;8.208;2023-04-30T02:39:46;102566.56;;;7.38;80.50
29163;BME280;20331;53.144;8.208;2023-04-30T02:50:08;102560.44;;;7.28;80.22
29163;BME280;20331;53.144;8.208;2023-04-30T03:00:29;102550.81;;;7.12;80.15
29163;BME280;20331;53.144;8.208;2023-04-30T03:10:51;102556.72;;;7.05;79.73
29163;BME280;20331;53.144;8.208;2023-04-30T03:21:12;102567.84;;;7.02;79.60
29163;BME280;20331;53.144;8.208;2023-04-30T03:31:34;102566.88;;;6.93;80.48
29163;BME280;20331;53.144;8.208;2023-04-30T03:41:55;102564.19;;;6.85;80.21
29163;BME280;20331;53.144;8.208;2023-04-30T03:52:17;102565.84;;;6.80;80.45
29163;BME280;20331;53.144;8.208;2023-04-30T04:02:38;102570.13;;;6.81;80.76
29163;BME280;20331;53.144;8.208;2023-04-30T04:13:00;102574.38;;;6.79;80.56
29163;BME280;20331;53.144;8.208;2023-04-30T04:23:22;102578.63;;;6.74;82.33
29163;BME280;20331;53.144;8.208;2023-04-30T04:33:43;102585.44;;;6.72;81.46
29163;BME280;20331;53.144;8.208;2023-04-30T04:54:57;102611.28;;;6.80;80.82
29163;BME280;20331;53.144;8.208;2023-04-30T05:05:19;102623.44;;;6.88;81.11
29163;BME280;20331;53.144;8.208;2023-04-30T05:15:40;102633.00;;;6.98;81.86
29163;BME280;20331;53.144;8.208;2023-04-30T05:26:02;102645.16;;;7.08;81.57
29163;BME280;20331;53.144;8.208;2023-04-30T05:36:24;102645.34;;;7.24;82.12
29163;BME280;20331;53.144;8.208;2023-04-30T05:46:46;102659.38;;;7.47;81.65
29163;BME280;20331;53.144;8.208;2023-04-30T05:57:07;102659.53;;;7.60;81.66
29163;BME280;20331;53.144;8.208;2023-04-30T06:07:29;102659.78;;;7.80;80.50
29163;BME280;20331;53.144;8.208;2023-04-30T06:17:50;102651.44;;;8.05;78.49
29163;BME280;20331;53.144;8.208;2023-04-30T06:28:12;102651.78;;;8.38;78.27
29163;BME280;20331;53.144;8.208;2023-04-30T06:38:33;102658.03;;;8.69;76.64
29163;BME280;20331;53.144;8.208;2023-04-30T06:48:55;102666.00;;;9.06;76.34
29163;BME280;20331;53.144;8.208;2023-04-30T06:59:16;102655.84;;;9.37;74.04
29163;BME280;20331;53.144;8.208;2023-04-30T07:09:38;102657.66;;;9.59;74.81
29163;BME280;20331;53.144;8.208;2023-04-30T07:19:59;102659.44;;;9.94;72.55
29163;BME280;20331;53.144;8.208;2023-04-30T07:30:20;102650.03;;;10.07;70.94
29163;BME280;20331;53.144;8.208;2023-04-30T07:40:45;102641.44;;;10.22;70.07
29163;BME280;20331;53.144;8.208;2023-04-30T07:51:06;102649.22;;;10.32;69.78
29163;BME280;20331;53.144;8.208;2023-04-30T08:01:28;102648.34;;;10.27;70.38
29163;BME280;20331;53.144;8.208;2023-04-30T08:11:49;102660.41;;;10.40;69.30
29163;BME280;20331;53.144;8.208;2023-04-30T08:22:11;102664.72;;;10.50;69.65
29163;BME280;20331;53.144;8.208;2023-04-30T08:32:36;102674.19;;;10.81;70.33
29163;BME280;20331;53.144;8.208;2023-04-30T08:43:04;102672.44;;;11.03;67.54
29163;BME280;20331;53.144;8.208;2023-04-30T08:53:25;102663.75;;;11.22;68.87
29163;BME280;20331;53.144;8.208;2023-04-30T09:03:47;102658.53;;;11.31;66.73
29163;BME280;20331;53.144;8.208;2023-04-30T09:14:08;102654.09;;;11.56;67.29
29163;BME280;20331;53.144;8.208;2023-04-30T09:24:31;102661.00;;;11.66;65.92
29163;BME280;20331;53.144;8.208;2023-04-30T09:35:05;102642.69;;;11.93;64.87
29163;BME280;20331;53.144;8.208;2023-04-30T09:45:37;102644.22;;;12.24;66.63
29163;BME280;20331;53.144;8.208;2023-04-30T09:55:59;102639.66;;;12.50;65.98
29163;BME280;20331;53.144;8.208;2023-04-30T10:06:22;102634.44;;;12.53;63.36
29163;BME280;20331;53.144;8.208;2023-04-30T10:27:09;102621.91;;;12.94;65.41
29163;BME280;20331;53.144;8.208;2023-04-30T10:37:38;102623.50;;;13.10;64.35
29163;BME280;20331;53.144;8.208;2023-04-30T10:48:04;102605.00;;;13.35;65.92
29163;BME280;20331;53.144;8.208;2023-04-30T10:58:30;102589.88;;;13.61;65.72
29163;BME280;20331;53.144;8.208;2023-04-30T11:08:51;102582.25;;;14.08;64.25
29163;BME280;20331;53.144;8.208;2023-04-30T11:19:13;102570.47;;;14.36;64.71
29163;BME280;20331;53.144;8.208;2023-04-30T11:29:34;102577.75;;;14.66;64.30
29163;BME280;20331;53.144;8.208;2023-04-30T11:39:57;102558.25;;;14.85;60.27
29163;BME280;20331;53.144;8.208;2023-04-30T11:50:20;102542.13;;;15.09;62.56
29163;BME280;20331;53.144;8.208;2023-04-30T12:00:47;102527.59;;;15.38;63.81
29163;BME280;20331;53.144;8.208;2023-04-30T12:11:20;102526.84;;;15.71;63.20
29163;BME280;20331;53.144;8.208;2023-04-30T12:21:42;102516.22;;;15.77;61.45
29163;BME280;20331;53.144;8.208;2023-04-30T12:32:07;102502.44;;;15.72;63.79
29163;BME280;20331;53.144;8.208;2023-04-30T12:42:32;102498.78;;;15.79;63.01
29163;BME280;20331;53.144;8.208;2023-04-30T12:52:54;102492.50;;;15.86;63.30
29163;BME280;20331;53.144;8.208;2023-04-30T13:03:18;102472.84;;;16.06;63.52
29163;BME280;20331;53.144;8.208;2023-04-30T13:13:43;102465.72;;;16.13;63.23
29163;BME280;20331;53.144;8.208;2023-04-30T13:24:05;102445.94;;;16.35;64.63
29163;BME280;20331;53.144;8.208;2023-04-30T13:34:26;102434.56;;;16.36;64.48
29163;BME280;20331;53.144;8.208;2023-04-30T13:44:48;102425.66;;;16.43;65.41
29163;BME280;20331;53.144;8.208;2023-04-30T13:55:10;102420.91;;;16.59;63.92
29163;BME280;20331;53.144;8.208;2023-04-30T14:05:31;102397.66;;;16.48;64.46
29163;BME280;20331;53.144;8.208;2023-04-30T14:15:53;102390.28;;;16.62;64.91
29163;BME280;20331;53.144;8.208;2023-04-30T14:26:16;102372.22;;;16.55;64.81
29163;BME280;20331;53.144;8.208;2023-04-30T14:36:37;102367.03;;;16.53;63.20
29163;BME280;20331;53.144;8.208;2023-04-30T14:47:00;102359.00;;;16.59;64.00
29163;BME280;20331;53.144;8.208;2023-04-30T14:57:21;102344.00;;;16.66;63.10
29163;BME280;20331;53.144;8.208;2023-04-30T15:07:43;102337.72;;;16.71;63.51
29163;BME280;20331;53.144;8.208;2023-04-30T15:18:05;102320.03;;;16.79;61.15
29163;BME280;20331;53.144;8.208;2023-04-30T15:28:27;102331.16;;;16.86;62.37
29163;BME280;20331;53.144;8.208;2023-04-30T15:38:49;102325.81;;;16.89;60.84
29163;BME280;20331;53.144;8.208;2023-04-30T15:49:10;102321.03;;;17.01;62.86
29163;BME280;20331;53.144;8.208;2023-04-30T15:59:32;102327.03;;;17.05;59.81
29163;BME280;20331;53.144;8.208;2023-04-30T16:09:53;102303.22;;;17.13;61.92
29163;BME280;20331;53.144;8.208;2023-04-30T16:20:15;102301.06;;;17.25;61.69
29163;BME280;20331;53.144;8.208;2023-04-30T16:30:36;102299.84;;;17.35;59.79
29163;BME280;20331;53.144;8.208;2023-04-30T16:40:58;102289.88;;;17.46;60.75
29163;BME280;20331;53.144;8.208;2023-04-30T16:51:19;102274.13;;;17.48;59.82
29163;BME280;20331;53.144;8.208;2023-04-30T17:01:41;102268.25;;;17.40;60.11
29163;BME280;20331;53.144;8.208;2023-04-30T17:12:02;102271.03;;;17.10;61.05
29163;BME280;20331;53.144;8.208;2023-04-30T17:22:25;102274.50;;;16.86;61.43
29163;BME280;20331;53.144;8.208;2023-04-30T17:32:48;102272.41;;;16.70;62.81
29163;BME280;20331;53.144;8.208;2023-04-30T17:43:10;102256.63;;;16.45;63.21
29163;BME280;20331;53.144;8.208;2023-04-30T17:53:31;102257.47;;;16.18;62.38
29163;BME280;20331;53.144;8.208;2023-04-30T18:03:53;102258.28;;;15.91;63.08
29163;BME280;20331;53.144;8.208;2023-04-30T18:14:15;102255.66;;;15.62;64.13
29163;BME280;20331;53.144;8.208;2023-04-30T18:24:37;102253.63;;;15.39;64.35
29163;BME280;20331;53.144;8.208;2023-04-30T18:34:58;102249.25;;;15.07;64.35
29163;BME280;20331;53.144;8.208;2023-04-30T18:45:20;102249.06;;;14.81;65.72
29163;BME280;20331;53.144;8.208;2023-04-30T18:55:44;102251.44;;;14.55;64.97
29163;BME280;20331;53.144;8.208;2023-04-30T19:06:06;102253.00;;;14.24;64.32
29163;BME280;20331;53.144;8.208;2023-04-30T19:16:28;102250.91;;;14.00;65.51
29163;BME280;20331;53.144;8.208;2023-04-30T19:26:50;102269.66;;;13.74;65.22
29163;BME280;20331;53.144;8.208;2023-04-30T19:37:12;102277.81;;;13.58;64.94
29163;BME280;20331;53.144;8.208;2023-04-30T19:47:33;102279.16;;;13.33;64.41
29163;BME280;20331;53.144;8.208;2023-04-30T19:57:54;102281.25;;;13.13;66.11
29163;BME280;20331;53.144;8.208;2023-04-30T20:08:16;102266.75;;;12.96;66.07
29163;BME280;20331;53.144;8.208;2023-04-30T20:18:37;102264.47;;;12.77;66.78
29163;BME280;20331;53.144;8.208;2023-04-30T20:28:59;102269.16;;;12.55;64.87
29163;BME280;20331;53.144;8.208;2023-04-30T20:39:21;102266.72;;;12.45;66.25
29163;BME280;20331;53.144;8.208;2023-04-30T20:49:42;102264.34;;;12.28;65.35
29163;BME280;20331;53.144;8.208;2023-04-30T21:00:04;102259.38;;;12.11;65.86
29163;BME280;20331;53.144;8.208;2023-04-30T21:10:27;102237.84;;;12.05;65.10
29163;BME280;20331;53.144;8.208;2023-04-30T21:21:00;102232.03;;;11.88;66.02
29163;BME280;20331;53.144;8.208;2023-04-30T21:31:21;102227.06;;;11.70;65.77
29163;BME280;20331;53.144;8.208;2023-04-30T21:41:43;102223.75;;;11.57;66.03
29163;BME280;20331;53.144;8.208;2023-04-30T21:52:05;102217.03;;;11.38;66.82
29163;BME280;20331;53.144;8.208;2023-04-30T22:02:28;102212.81;;;11.30;67.17
29163;BME280;20331;53.144;8.208;2023-04-30T22:12:50;102195.59;;;11.23;67.65
29163;BME280;20331;53.144;8.208;2023-04-30T22:23:11;102177.59;;;11.10;67.73
29163;BME280;20331;53.144;8.208;2023-04-30T22:33:36;102179.44;;;10.99;68.13
29163;BME280;20331;53.144;8.208;2023-04-30T22:43:57;102165.78;;;10.85;68.48
29163;BME280;20331;53.144;8.208;2023-04-30T22:54:19;102163.28;;;10.76;68.98
29163;BME280;20331;53.144;8.208;2023-04-30T23:04:40;102153.00;;;10.69;69.03
29163;BME280;20331;53.144;8.208;2023-04-30T23:15:02;102140.06;;;10.67;69.54
29163;BME280;20331;53.144;8.208;2023-04-30T23:25:24;102140.13;;;10.61;69.25
29163;BME280;20331;53.144;8.208;2023-04-30T23:35:46;102132.47;;;10.49;69.81
29163;BME280;20331;53.144;8.208;2023-04-30T23:46:07;102113.59;;;10.38;70.45
29163;BME280;20331;53.144;8.208;2023-04-30T23:56:29;102104.13;;;10.31;70.34
